Fri Langesund — ZDKQ8 — position and weather

sailwx.info

Track history (hours):
 
Tides and Currents Weather Stations Pressure Air Temp Water Temp Dewpoint Dewpoint Depression Visibility Wind Speed Wind Dir Waves Ship Positions

Fri Langesund

Last reported at 2014-Aug-31 04:05 UTC. Time now 2014-Sep-01 13:43 UTC.
Position N 52°33' W 009°49'.

Length 90 m; draft 5.1 m.

Type: Cargo ship. MMSI: 236111779.

Date/timePositionNaut miles runAvg speedWind from/ knotsBaromVisibWave heightAir tempDewpointWater temp
2014-Aug-31 04:05N 52°33' W 009°49'3 5.7
2014-Aug-31 03:32N 52°30' W 009°52'4 4.4
2014-Aug-31 02:33N 52°29' W 009°59'6 6.1
2014-Aug-31 01:30N 52°36' W 009°60'6 6.8
2014-Aug-31 00:33N 52°42' W 010°02'7 7.1
2014-Aug-30 23:33N 52°49' W 010°04'7 7.1
2014-Aug-30 22:33N 52°56' W 010°07'7 6.9
2014-Aug-30 21:33N 53°03' W 010°09'7 6.8
2014-Aug-30 20:33N 53°09' W 010°11'6 6.2
2014-Aug-30 19:32N 53°15' W 010°14'6 6.3
2014-Aug-30 18:33N 53°21' W 010°16'8 7.6
2014-Aug-30 17:33N 53°29' W 010°19'8 8.1
2014-Aug-30 16:33N 53°37' W 010°22'9 8.9
2014-Aug-30 15:34N 53°46' W 010°20'8 8.4
2014-Aug-30 14:33N 53°54' W 010°19'10 9.5
2014-Aug-30 13:33N 54°03' W 010°17'9 8.6
2014-Aug-30 12:33N 54°12' W 010°15'8 8.2
2014-Aug-30 11:33N 54°20' W 010°10'9 8.1
2014-Aug-30 10:30N 54°27' W 010°03'8 8.2
2014-Aug-30 09:33N 54°34' W 009°56'8 8.5
2014-Aug-30 08:33N 54°41' W 009°48'231 7.9
2014-Aug-29 03:05N 57°60' W 006°15'5 9.4
2014-Aug-29 02:34N 58°03' W 006°08'9 9.0
2014-Aug-29 01:34N 58°10' W 005°57'9 8.9
2014-Aug-29 00:34N 58°17' W 005°45'9 8.6
2014-Aug-28 23:34N 58°23' W 005°34'27 7.7
2014-Aug-28 20:06N 58°41' W 004°56'4 7.6
2014-Aug-28 19:34N 58°41' W 004°48'8 8.0
2014-Aug-28 18:33N 58°42' W 004°33'9 9.0
2014-Aug-28 17:33N 58°42' W 004°15'9 9.3
2014-Aug-28 16:33N 58°42' W 003°57'10 9.9
2014-Aug-28 15:33N 58°43' W 003°38'1211.2
2014-Aug-28 14:31N 58°43' W 003°16'1212.3
2014-Aug-28 13:33N 58°42' W 002°53'9 8.7
2014-Aug-28 12:33N 58°41' W 002°36'410 8.9
2014-Aug-26 14:13N 57°48' E 010°17'6 9.5
2014-Aug-26 13:33N 57°48' E 010°29'9 9.5
2014-Aug-26 12:33N 57°48' E 010°46'9 9.3
2014-Aug-26 11:33N 57°44' E 011°02'9 9.3
2014-Aug-26 10:33N 57°40' E 011°18'10 9.5
2014-Aug-26 09:33N 57°37' E 011°35'3 3.5
2014-Aug-26 08:33N 57°35' E 011°41'0 0.0
2014-Aug-26 07:33N 57°35' E 011°41'4 4.0
2014-Aug-26 06:33N 57°31' E 011°38'1110.5
2014-Aug-26 05:33N 57°21' E 011°46'1110.3
2014-Aug-26 04:31N 57°11' E 011°54'1110.6
2014-Aug-26 03:29N 57°01' E 012°00'32 9.5
2014-Aug-26 00:04N 56°30' E 012°16'5 9.0
2014-Aug-25 23:33N 56°26' E 012°19'9 9.3
2014-Aug-25 22:33N 56°17' E 012°24'9 9.4
2014-Aug-25 21:33N 56°08' E 012°32'9 9.2
2014-Aug-25 20:33N 56°01' E 012°41'9 9.5
2014-Aug-25 19:33N 55°51' E 012°44'10 9.6
2014-Aug-25 18:33N 55°42' E 012°41'9 9.4
2014-Aug-25 17:33N 55°32' E 012°43'1010.2
2014-Aug-25 16:33N 55°22' E 012°41'8 8.3
2014-Aug-25 15:33N 55°16' E 012°52'9 8.9
2014-Aug-25 14:33N 55°16' E 013°08'9 8.9
2014-Aug-25 13:33N 55°15' E 013°23'35 8.3
2014-Aug-25 09:24N 55°18' E 014°24'8 9.3
2014-Aug-25 08:33N 55°24' E 014°33'10 9.0
2014-Aug-25 07:28N 55°27' E 014°50'8 8.8
2014-Aug-25 06:33N 55°27' E 015°04'9 8.6
2014-Aug-25 05:33N 55°28' E 015°19'  
2014-Aug-21 22:28N 54°41' E 014°23'1010.6
2014-Aug-21 21:33N 54°42' E 014°07'1110.5
2014-Aug-21 20:33N 54°43' E 013°48'1010.3
2014-Aug-21 19:33N 54°43' E 013°31'1110.5
2014-Aug-21 18:32N 54°42' E 013°12'1110.7
2014-Aug-21 17:33N 54°38' E 012°55'1110.7
2014-Aug-21 16:33N 54°34' E 012°38'1110.9
2014-Aug-21 15:33N 54°32' E 012°20'1110.6
2014-Aug-21 14:33N 54°23' E 012°08'1111.3
2014-Aug-21 13:33N 54°17' E 011°52'1410.7
2014-Aug-21 12:14N 54°09' E 011°33'6 8.1
2014-Aug-21 11:29N 54°05' E 011°24'0 0.0
2014-Aug-21 10:32N 54°05' E 011°24'6 5.7
2014-Aug-21 09:33N 54°00' E 011°20'7 7.4
2014-Aug-21 08:33N 53°54' E 011°28'0 0.0
2014-Aug-21 07:33N 53°54' E 011°28'0 0.0
2014-Aug-21 06:33N 53°54' E 011°28'0 0.0
2014-Aug-21 05:33N 53°54' E 011°28'0 0.0
2014-Aug-21 04:33N 53°54' E 011°28'  
Track history (hours):
 
Tides and Currents Weather Stations Pressure Air Temp Water Temp Dewpoint Dewpoint Depression Visibility Wind Speed Wind Dir Waves Ship Positions

Fri Langesund

Last reported at 2014-Aug-31 04:05 UTC. Time now 2014-Sep-01 13:43 UTC.
Position N 52°33' W 009°49'.

Length 90 m; draft 5.1 m.

Type: Cargo ship. MMSI: 236111779.

Date/timePositionNaut miles runAvg speedWind from/ knotsBaromVisibWave heightAir tempDewpointWater temp
2014-Aug-31 04:05N 52°33' W 009°49'3 5.7
2014-Aug-31 03:32N 52°30' W 009°52'4 4.4
2014-Aug-31 02:33N 52°29' W 009°59'6 6.1
2014-Aug-31 01:30N 52°36' W 009°60'6 6.8
2014-Aug-31 00:33N 52°42' W 010°02'7 7.1
2014-Aug-30 23:33N 52°49' W 010°04'7 7.1
2014-Aug-30 22:33N 52°56' W 010°07'7 6.9
2014-Aug-30 21:33N 53°03' W 010°09'7 6.8
2014-Aug-30 20:33N 53°09' W 010°11'6 6.2
2014-Aug-30 19:32N 53°15' W 010°14'6 6.3
2014-Aug-30 18:33N 53°21' W 010°16'8 7.6
2014-Aug-30 17:33N 53°29' W 010°19'8 8.1
2014-Aug-30 16:33N 53°37' W 010°22'9 8.9
2014-Aug-30 15:34N 53°46' W 010°20'8 8.4
2014-Aug-30 14:33N 53°54' W 010°19'10 9.5
2014-Aug-30 13:33N 54°03' W 010°17'9 8.6
2014-Aug-30 12:33N 54°12' W 010°15'8 8.2
2014-Aug-30 11:33N 54°20' W 010°10'9 8.1
2014-Aug-30 10:30N 54°27' W 010°03'8 8.2
2014-Aug-30 09:33N 54°34' W 009°56'8 8.5
2014-Aug-30 08:33N 54°41' W 009°48'231 7.9
2014-Aug-29 03:05N 57°60' W 006°15'5 9.4
2014-Aug-29 02:34N 58°03' W 006°08'9 9.0
2014-Aug-29 01:34N 58°10' W 005°57'9 8.9
2014-Aug-29 00:34N 58°17' W 005°45'9 8.6
2014-Aug-28 23:34N 58°23' W 005°34'27 7.7
2014-Aug-28 20:06N 58°41' W 004°56'4 7.6
2014-Aug-28 19:34N 58°41' W 004°48'8 8.0
2014-Aug-28 18:33N 58°42' W 004°33'9 9.0
2014-Aug-28 17:33N 58°42' W 004°15'9 9.3
2014-Aug-28 16:33N 58°42' W 003°57'10 9.9
2014-Aug-28 15:33N 58°43' W 003°38'1211.2
2014-Aug-28 14:31N 58°43' W 003°16'1212.3
2014-Aug-28 13:33N 58°42' W 002°53'9 8.7
2014-Aug-28 12:33N 58°41' W 002°36'410 8.9
2014-Aug-26 14:13N 57°48' E 010°17'6 9.5
2014-Aug-26 13:33N 57°48' E 010°29'9 9.5
2014-Aug-26 12:33N 57°48' E 010°46'9 9.3
2014-Aug-26 11:33N 57°44' E 011°02'9 9.3
2014-Aug-26 10:33N 57°40' E 011°18'10 9.5
2014-Aug-26 09:33N 57°37' E 011°35'3 3.5
2014-Aug-26 08:33N 57°35' E 011°41'0 0.0
2014-Aug-26 07:33N 57°35' E 011°41'4 4.0
2014-Aug-26 06:33N 57°31' E 011°38'1110.5
2014-Aug-26 05:33N 57°21' E 011°46'1110.3
2014-Aug-26 04:31N 57°11' E 011°54'1110.6
2014-Aug-26 03:29N 57°01' E 012°00'32 9.5
2014-Aug-26 00:04N 56°30' E 012°16'5 9.0
2014-Aug-25 23:33N 56°26' E 012°19'9 9.3
2014-Aug-25 22:33N 56°17' E 012°24'9 9.4
2014-Aug-25 21:33N 56°08' E 012°32'9 9.2
2014-Aug-25 20:33N 56°01' E 012°41'9 9.5
2014-Aug-25 19:33N 55°51' E 012°44'10 9.6
2014-Aug-25 18:33N 55°42' E 012°41'9 9.4
2014-Aug-25 17:33N 55°32' E 012°43'1010.2
2014-Aug-25 16:33N 55°22' E 012°41'8 8.3
2014-Aug-25 15:33N 55°16' E 012°52'9 8.9
2014-Aug-25 14:33N 55°16' E 013°08'9 8.9
2014-Aug-25 13:33N 55°15' E 013°23'35 8.3
2014-Aug-25 09:24N 55°18' E 014°24'8 9.3
2014-Aug-25 08:33N 55°24' E 014°33'10 9.0
2014-Aug-25 07:28N 55°27' E 014°50'8 8.8
2014-Aug-25 06:33N 55°27' E 015°04'9 8.6
2014-Aug-25 05:33N 55°28' E 015°19'  
2014-Aug-21 22:28N 54°41' E 014°23'1010.6
2014-Aug-21 21:33N 54°42' E 014°07'1110.5
2014-Aug-21 20:33N 54°43' E 013°48'1010.3
2014-Aug-21 19:33N 54°43' E 013°31'1110.5
2014-Aug-21 18:32N 54°42' E 013°12'1110.7
2014-Aug-21 17:33N 54°38' E 012°55'1110.7
2014-Aug-21 16:33N 54°34' E 012°38'1110.9
2014-Aug-21 15:33N 54°32' E 012°20'1110.6
2014-Aug-21 14:33N 54°23' E 012°08'1111.3
2014-Aug-21 13:33N 54°17' E 011°52'1410.7
2014-Aug-21 12:14N 54°09' E 011°33'6 8.1
2014-Aug-21 11:29N 54°05' E 011°24'0 0.0
2014-Aug-21 10:32N 54°05' E 011°24'6 5.7
2014-Aug-21 09:33N 54°00' E 011°20'7 7.4
2014-Aug-21 08:33N 53°54' E 011°28'0 0.0
2014-Aug-21 07:33N 53°54' E 011°28'0 0.0
2014-Aug-21 06:33N 53°54' E 011°28'0 0.0
2014-Aug-21 05:33N 53°54' E 011°28'0 0.0
2014-Aug-21 04:33N 53°54' E 011°28'  

Dump ship's entire track history